Winterhaven, California
Current Conditions -  °F | °C
As of 11:57 PM on Monday 20 Oct 2014 (Local Time) from KNYL Reporting Station
Clear Clear  
Wind Chill: 78°   Ceiling: Unl
Heat Index: 79°   Visibility: 10mi
Dew Point: 60°   Wind: 5mph
Humidity: 54%   Direction: 140°SE
Pressure: 29.79"   Gusts: NA
Location:  32.74°N, 114.63°W
Report Text: KNYL 210657Z 14004KT 10SM CLR 26/16 A2979 RMK AO2 SLP084 T02560156 403440228
Loading
Personal Weather Stations






























Interactive Weather Map
Tropical Storm Tracking
New forecast layout! Learn more

10-Day Weather Forecast

Advertisements
Track Severe Weather on mobile